createdAt,value
2023-04-10T00:00:04.790Z,527.6
2023-04-10T00:01:06.592Z,527.3
2023-04-10T00:02:08.951Z,527.5
2023-04-10T00:03:11.768Z,527.6
2023-04-10T00:04:14.596Z,527.6
2023-04-10T00:05:16.573Z,527.8
2023-04-10T00:06:18.532Z,527.9
2023-04-10T00:07:20.390Z,527.9
2023-04-10T00:08:22.251Z,528
2023-04-10T00:09:24.095Z,528.3
2023-04-10T00:10:25.863Z,528.1
2023-04-10T00:11:27.890Z,528.2
2023-04-10T00:12:29.638Z,528.4
2023-04-10T00:13:31.398Z,528.3
2023-04-10T00:14:33.157Z,528.3
2023-04-10T00:15:34.991Z,528.3
2023-04-10T00:16:37.308Z,528.2
2023-04-10T00:17:39.321Z,528.6
2023-04-10T00:18:41.143Z,528.7
2023-04-10T00:19:43.098Z,528.6
2023-04-10T00:20:44.970Z,528.6
2023-04-10T00:21:46.892Z,529
2023-04-10T00:22:48.744Z,528.8
2023-04-10T00:23:50.731Z,528.6
2023-04-10T00:24:52.561Z,528.9
2023-04-10T00:25:54.507Z,529.1
2023-04-10T00:26:56.352Z,529.5
2023-04-10T00:27:58.208Z,529
2023-04-10T00:29:00.051Z,529.4
2023-04-10T00:30:01.914Z,529.5
2023-04-10T00:31:03.781Z,529.6
2023-04-10T00:32:05.736Z,529.7
2023-04-10T00:33:07.893Z,529.7
2023-04-10T00:34:09.810Z,529.7
2023-04-10T00:35:11.768Z,529.8
2023-04-10T00:36:13.932Z,529.9
2023-04-10T00:37:15.879Z,529.5
2023-04-10T00:38:17.725Z,529.9
2023-04-10T00:39:19.626Z,530
2023-04-10T00:40:21.639Z,530
2023-04-10T00:41:23.580Z,530.1
2023-04-10T00:42:25.367Z,530.3
2023-04-10T00:43:27.187Z,530.3
2023-04-10T00:44:29.241Z,530.5
2023-04-10T00:45:31.190Z,530.5
2023-04-10T00:46:33.490Z,530.5
2023-04-10T00:47:35.520Z,530.6
2023-04-10T00:48:37.360Z,530.7
2023-04-10T00:49:39.305Z,530.9
2023-04-10T00:50:41.154Z,530.7
2023-04-10T00:51:43.019Z,530.5
2023-04-10T00:52:44.967Z,530.6
2023-04-10T00:53:46.806Z,530.8
2023-04-10T00:54:48.898Z,530.5
2023-04-10T00:55:50.869Z,530.7
2023-04-10T00:56:52.594Z,531.2
2023-04-10T00:57:54.419Z,531.1
2023-04-10T00:58:56.262Z,531.6
2023-04-10T00:59:58.225Z,531.4
2023-04-10T01:01:00.202Z,531.5
2023-04-10T01:02:03.181Z,531.9
2023-04-10T01:03:05.623Z,531.8
2023-04-10T01:04:07.929Z,532.2
2023-04-10T01:05:10.031Z,532.2
2023-04-10T01:06:11.902Z,532
2023-04-10T01:07:13.731Z,532.2
2023-04-10T01:08:15.589Z,532.4
2023-04-10T01:09:17.432Z,532.2
2023-04-10T01:10:19.415Z,532.6
2023-04-10T01:11:21.334Z,532.3
2023-04-10T01:12:23.177Z,532
2023-04-10T01:13:25.025Z,531.9
2023-04-10T01:14:26.885Z,532.3
2023-04-10T01:15:28.858Z,532
2023-04-10T01:16:30.940Z,532.1
2023-04-10T01:17:32.958Z,532
2023-04-10T01:18:34.793Z,532.1
2023-04-10T01:19:36.657Z,532.3
2023-04-10T01:20:38.606Z,532.4
2023-04-10T01:21:40.464Z,532.2
2023-04-10T01:22:42.298Z,532.4
2023-04-10T01:23:44.076Z,532.4
2023-04-10T01:24:45.890Z,532.3
2023-04-10T01:25:47.771Z,532.3
2023-04-10T01:26:49.693Z,532.5
2023-04-10T01:27:51.644Z,532.5
2023-04-10T01:28:53.502Z,532.3
2023-04-10T01:29:55.445Z,532.2
2023-04-10T01:30:57.834Z,532.5
2023-04-10T01:31:59.764Z,532.7
2023-04-10T01:33:01.830Z,533
2023-04-10T01:34:03.797Z,532.8
2023-04-10T01:35:05.616Z,532.8
2023-04-10T01:36:07.710Z,532.6
2023-04-10T01:37:09.635Z,532.3
2023-04-10T01:38:11.488Z,532.5
2023-04-10T01:39:13.265Z,532.5
2023-04-10T01:40:15.077Z,532.5
2023-04-10T01:41:17.064Z,532.1
2023-04-10T01:42:18.990Z,532.7
2023-04-10T01:43:20.772Z,532.5
2023-04-10T01:44:22.576Z,532.5
2023-04-10T01:45:24.449Z,532.5
2023-04-10T01:46:26.440Z,532.6
2023-04-10T01:47:28.610Z,532.5
2023-04-10T01:48:30.498Z,532.5
2023-04-10T01:49:32.451Z,532.5
2023-04-10T01:50:34.300Z,532.4
2023-04-10T01:51:36.147Z,532.2
2023-04-10T01:52:37.991Z,532.3
2023-04-10T01:53:39.841Z,531.9
2023-04-10T01:54:41.706Z,532.3
2023-04-10T01:55:43.546Z,532.2
2023-04-10T01:56:45.521Z,532.3
2023-04-10T01:57:47.456Z,532.4
2023-04-10T01:58:49.313Z,532.2
2023-04-10T01:59:51.146Z,532.2
2023-04-10T02:00:52.901Z,532.2
2023-04-10T02:01:55.184Z,532.1
2023-04-10T02:02:57.795Z,532.5
2023-04-10T02:04:00.453Z,532.8
2023-04-10T02:05:03.000Z,532.9
2023-04-10T02:06:05.013Z,532.7
2023-04-10T02:07:06.869Z,532.8
2023-04-10T02:08:08.828Z,533.1
2023-04-10T02:09:10.611Z,533.3
2023-04-10T02:10:12.424Z,533.3
2023-04-10T02:11:14.274Z,533.3
2023-04-10T02:12:16.048Z,533.6
2023-04-10T02:13:17.969Z,533.9
2023-04-10T02:14:19.825Z,534.2
2023-04-10T02:15:21.778Z,534.4
2023-04-10T02:16:24.180Z,534.2
2023-04-10T02:17:26.240Z,534.3
2023-04-10T02:18:28.247Z,534.4
2023-04-10T02:19:30.095Z,534.5
2023-04-10T02:20:31.938Z,534.3
2023-04-10T02:21:33.721Z,534.4
2023-04-10T02:22:35.640Z,534.4
2023-04-10T02:23:37.587Z,534.6
2023-04-10T02:24:39.440Z,534.4
2023-04-10T02:25:41.306Z,534.4
2023-04-10T02:26:43.255Z,534.1
2023-04-10T02:27:45.230Z,534.3
2023-04-10T02:28:47.157Z,534.2
2023-04-10T02:29:48.995Z,534.7
2023-04-10T02:30:50.879Z,534.9
2023-04-10T02:31:52.704Z,534.9
2023-04-10T02:32:54.663Z,534.7
2023-04-10T02:33:56.822Z,534.9
2023-04-10T02:34:58.664Z,535
2023-04-10T02:36:00.726Z,535.6
2023-04-10T02:37:02.574Z,535.3
2023-04-10T02:38:04.513Z,535.8
2023-04-10T02:39:06.572Z,535.9
2023-04-10T02:40:08.529Z,536.1
2023-04-10T02:41:10.384Z,536.1
2023-04-10T02:42:12.151Z,535.9
2023-04-10T02:43:14.001Z,536.2
2023-04-10T02:44:15.939Z,536.4
2023-04-10T02:45:17.785Z,536.2
2023-04-10T02:46:19.759Z,536.3
2023-04-10T02:47:21.796Z,536.5
2023-04-10T02:48:23.627Z,536.4
2023-04-10T02:49:25.432Z,536.6
2023-04-10T02:50:27.233Z,536.5
2023-04-10T02:51:29.176Z,536.5
2023-04-10T02:52:30.927Z,536.5
2023-04-10T02:53:32.783Z,536.6
2023-04-10T02:54:34.630Z,536.7
2023-04-10T02:55:36.492Z,536.8
2023-04-10T02:56:38.431Z,537.2
2023-04-10T02:57:40.391Z,537.3
2023-04-10T02:58:42.155Z,537.3
2023-04-10T02:59:44.097Z,537.3
2023-04-10T03:00:45.935Z,537.4
2023-04-10T03:01:48.344Z,537.5
2023-04-10T03:02:51.236Z,537.4
2023-04-10T03:03:54.621Z,537.2
2023-04-10T03:04:57.078Z,537.4
2023-04-10T03:05:58.979Z,537.3
2023-04-10T03:07:00.944Z,537.3
2023-04-10T03:08:02.787Z,537.8
2023-04-10T03:09:04.731Z,537.7
2023-04-10T03:10:06.581Z,537.4
2023-04-10T03:11:08.326Z,537.5
2023-04-10T03:12:10.084Z,537.4
2023-04-10T03:13:11.934Z,537.3
2023-04-10T03:14:13.795Z,537.2
2023-04-10T03:15:15.730Z,537.4
2023-04-10T03:16:17.797Z,537.1
2023-04-10T03:17:19.645Z,537.4
2023-04-10T03:18:21.420Z,537.2
2023-04-10T03:19:23.228Z,537.3
2023-04-10T03:20:25.074Z,537.3
2023-04-10T03:21:26.933Z,537.2
2023-04-10T03:22:28.879Z,537.5
2023-04-10T03:23:30.742Z,537.1
2023-04-10T03:24:32.514Z,537.1
2023-04-10T03:25:36.895Z,537.2
2023-04-10T03:26:38.738Z,537.1
2023-04-10T03:27:40.715Z,537.2
2023-04-10T03:28:42.547Z,537.3
2023-04-10T03:29:44.412Z,537.5
2023-04-10T03:30:46.248Z,537.1
2023-04-10T03:31:48.252Z,537.3
2023-04-10T03:32:50.045Z,537.5
2023-04-10T03:33:52.981Z,537.2
2023-04-10T03:34:55.076Z,537
2023-04-10T03:35:57.058Z,536.9
2023-04-10T03:36:58.981Z,536.5
2023-04-10T03:38:00.836Z,536.7
2023-04-10T03:39:02.789Z,536.5
2023-04-10T03:40:04.565Z,536.6
2023-04-10T03:41:06.382Z,536.3
2023-04-10T03:42:08.339Z,536.3
2023-04-10T03:43:10.280Z,536.2
2023-04-10T03:44:12.244Z,536
2023-04-10T03:45:14.218Z,536.1
2023-04-10T03:46:16.466Z,536.2
2023-04-10T03:47:18.223Z,536.5
2023-04-10T03:48:20.045Z,536.2
2023-04-10T03:49:22.112Z,536.1
2023-04-10T03:50:23.947Z,536
2023-04-10T03:51:25.773Z,535.8
2023-04-10T03:52:27.589Z,535.8
2023-04-10T03:53:29.397Z,536
2023-04-10T03:54:31.250Z,535.5
2023-04-10T03:55:33.215Z,535.7
2023-04-10T03:56:35.162Z,535.1
2023-04-10T03:57:37.013Z,535.6
2023-04-10T03:58:38.857Z,535.4
2023-04-10T03:59:40.614Z,535.4
2023-04-10T04:00:42.475Z,535.3
2023-04-10T04:01:44.910Z,535.3
2023-04-10T04:02:47.679Z,535.1
2023-04-10T04:03:50.494Z,534.7
2023-04-10T04:04:52.868Z,534.8
2023-04-10T04:05:54.673Z,534.8
2023-04-10T04:06:56.406Z,535
2023-04-10T04:07:58.375Z,534.7
2023-04-10T04:09:00.316Z,534.5
2023-04-10T04:10:02.290Z,534.4
2023-04-10T04:11:04.236Z,534.2
2023-04-10T04:12:06.187Z,534.5
2023-04-10T04:13:08.040Z,534.6
2023-04-10T04:14:09.777Z,534.4
2023-04-10T04:15:11.624Z,534.3
2023-04-10T04:16:13.645Z,534
2023-04-10T04:17:15.646Z,533.8
2023-04-10T04:18:17.495Z,534
2023-04-10T04:19:19.485Z,533.6
2023-04-10T04:20:21.302Z,533.6
2023-04-10T04:21:23.150Z,533.8
2023-04-10T04:22:25.092Z,533.8
2023-04-10T04:23:27.040Z,533.5
2023-04-10T04:24:29.104Z,533.8
2023-04-10T04:25:30.984Z,533.5
2023-04-10T04:26:32.797Z,533.4
2023-04-10T04:27:34.648Z,533.6
2023-04-10T04:28:36.500Z,533.5
2023-04-10T04:29:38.469Z,533.5
2023-04-10T04:30:40.321Z,533.6
2023-04-10T04:31:42.322Z,533.3
2023-04-10T04:32:44.628Z,533.6
2023-04-10T04:33:46.467Z,533.4
2023-04-10T04:34:48.320Z,533.5
2023-04-10T04:35:50.293Z,533.6
2023-04-10T04:36:52.233Z,533.2
2023-04-10T04:37:54.083Z,533.7
2023-04-10T04:38:56.038Z,533.4
2023-04-10T04:39:57.848Z,533.4
2023-04-10T04:40:59.747Z,533.2
2023-04-10T04:42:01.586Z,533.1
2023-04-10T04:43:03.567Z,533.1
2023-04-10T04:44:05.382Z,532.8
2023-04-10T04:45:07.133Z,532.8
2023-04-10T04:46:09.334Z,532.9
2023-04-10T04:47:11.269Z,532.9
2023-04-10T04:48:13.187Z,532.9
2023-04-10T04:49:14.977Z,533
2023-04-10T04:50:16.891Z,532.8
2023-04-10T04:51:18.737Z,533
2023-04-10T04:52:20.792Z,533
2023-04-10T04:53:22.643Z,533
2023-04-10T04:54:24.388Z,532.8
2023-04-10T04:55:26.061Z,532.5
2023-04-10T04:56:27.911Z,532.5
2023-04-10T04:57:29.742Z,532.6
2023-04-10T04:58:31.583Z,532.2
2023-04-10T04:59:33.341Z,532.1
2023-04-10T05:00:35.182Z,532.1
2023-04-10T05:01:37.525Z,532
2023-04-10T05:02:40.240Z,531.9
2023-04-10T05:03:42.792Z,532.5
2023-04-10T05:04:44.738Z,532.1
2023-04-10T05:05:46.689Z,531.9
2023-04-10T05:06:48.545Z,531.8
2023-04-10T05:07:50.400Z,532.1
2023-04-10T05:08:52.587Z,532
2023-04-10T05:09:54.516Z,532
2023-04-10T05:10:56.350Z,532.4
2023-04-10T05:11:58.088Z,532.2
2023-04-10T05:12:59.948Z,532
2023-04-10T05:14:01.886Z,532.2
2023-04-10T05:15:03.886Z,531.9
2023-04-10T05:16:05.933Z,531.6
2023-04-10T05:17:07.861Z,531.8
2023-04-10T05:18:10.118Z,531.7
2023-04-10T05:19:12.166Z,532.1
2023-04-10T05:20:14.124Z,531.8
2023-04-10T05:21:15.973Z,532
2023-04-10T05:22:19.250Z,532
2023-04-10T05:23:21.196Z,531.8
2023-04-10T05:24:23.062Z,531.9
2023-04-10T05:25:25.020Z,532.2
2023-04-10T05:26:26.763Z,532.2
2023-04-10T05:27:28.605Z,532.4
2023-04-10T05:28:30.567Z,532.2
2023-04-10T05:29:32.331Z,532.3
2023-04-10T05:30:34.168Z,532.6
2023-04-10T05:31:36.376Z,532.3
2023-04-10T05:32:38.281Z,532.4
2023-04-10T05:33:40.142Z,532.3
2023-04-10T05:34:42.079Z,532.4
2023-04-10T05:35:43.964Z,532.3
2023-04-10T05:36:45.668Z,532.2
2023-04-10T05:37:47.516Z,532.3
2023-04-10T05:38:49.267Z,532.4
2023-04-10T05:39:51.329Z,532.3
2023-04-10T05:40:53.075Z,532.2
2023-04-10T05:41:54.924Z,531.8
2023-04-10T05:42:56.777Z,532
2023-04-10T05:43:58.618Z,531.7
2023-04-10T05:45:00.429Z,531.7
2023-04-10T05:46:02.485Z,532.1
2023-04-10T05:47:04.269Z,532.2
2023-04-10T05:48:06.438Z,532
2023-04-10T05:49:08.370Z,532.2
2023-04-10T05:50:10.340Z,532.1
2023-04-10T05:51:12.199Z,532.1
2023-04-10T05:52:14.031Z,531.8
2023-04-10T05:53:15.891Z,531.5
2023-04-10T05:54:17.766Z,531.7
2023-04-10T05:55:19.507Z,531.8
2023-04-10T05:56:21.430Z,531.8
2023-04-10T05:57:23.323Z,531.5
2023-04-10T05:58:25.232Z,531.4
2023-04-10T05:59:27.031Z,531.5
2023-04-10T06:00:28.838Z,531.7
2023-04-10T06:01:30.923Z,531.7
2023-04-10T06:02:33.934Z,531.8
2023-04-10T06:03:36.597Z,531.9
2023-04-10T06:04:39.611Z,531.8
2023-04-10T06:05:41.879Z,531.9
2023-04-10T06:06:43.583Z,531.7
2023-04-10T06:07:45.581Z,531.8
2023-04-10T06:08:47.539Z,531.8
2023-04-10T06:09:49.385Z,531.7
2023-04-10T06:10:51.338Z,531.6
2023-04-10T06:11:53.184Z,531.3
2023-04-10T06:12:55.027Z,532
2023-04-10T06:13:56.926Z,531.9
2023-04-10T06:14:58.728Z,532.1
2023-04-10T06:16:01.433Z,531.9
2023-04-10T06:17:03.697Z,532
2023-04-10T06:18:05.511Z,531.9
2023-04-10T06:19:07.220Z,532
2023-04-10T06:20:09.140Z,531.8
2023-04-10T06:21:11.060Z,531.7
2023-04-10T06:22:12.910Z,531.8
2023-04-10T06:23:14.856Z,532
2023-04-10T06:24:16.685Z,532.2
2023-04-10T06:25:18.487Z,531.8
2023-04-10T06:26:20.302Z,532
2023-04-10T06:27:22.159Z,531.8
2023-04-10T06:28:24.017Z,532.2
2023-04-10T06:29:25.960Z,532.2
2023-04-10T06:30:28.043Z,532
2023-04-10T06:31:30.134Z,532
2023-04-10T06:32:32.256Z,532.6
2023-04-10T06:33:34.083Z,532.7
2023-04-10T06:34:35.929Z,532.6
2023-04-10T06:35:38.134Z,532.6
2023-04-10T06:36:40.058Z,532.4
2023-04-10T06:37:41.804Z,532
2023-04-10T06:38:43.648Z,532
2023-04-10T06:39:45.570Z,531.8
2023-04-10T06:40:47.600Z,532
2023-04-10T06:41:49.702Z,532.1
2023-04-10T06:42:51.559Z,532
2023-04-10T06:43:53.504Z,532
2023-04-10T06:44:55.353Z,531.8
2023-04-10T06:45:57.093Z,531.6
2023-04-10T06:46:59.310Z,531.4
2023-04-10T06:48:01.384Z,531
2023-04-10T06:49:03.368Z,531.3
2023-04-10T06:50:05.229Z,531.3
2023-04-10T06:51:07.100Z,531.3
2023-04-10T06:52:08.922Z,531.5
2023-04-10T06:53:10.671Z,531.4
2023-04-10T06:54:12.539Z,531.4
2023-04-10T06:55:14.368Z,531
2023-04-10T06:56:16.213Z,531
2023-04-10T06:57:18.071Z,531.2
2023-04-10T06:58:19.816Z,531
2023-04-10T06:59:21.666Z,531.1
2023-04-10T07:00:23.614Z,531.1
2023-04-10T07:01:27.239Z,530.8
2023-04-10T07:02:29.599Z,530.9
2023-04-10T07:03:31.480Z,530.5
2023-04-10T07:04:33.306Z,530.4
2023-04-10T07:05:35.018Z,530.6
2023-04-10T07:06:36.999Z,530.7
2023-04-10T07:07:39.223Z,530.6
2023-04-10T07:08:41.096Z,530.7
2023-04-10T07:09:43.043Z,530.5
2023-04-10T07:10:47.636Z,530.6
2023-04-10T07:11:49.615Z,530.8
2023-04-10T07:12:51.458Z,531
2023-04-10T07:13:53.322Z,530.6
2023-04-10T07:14:55.564Z,530.5
2023-04-10T07:15:57.738Z,531
2023-04-10T07:16:59.487Z,530.6
2023-04-10T07:18:01.912Z,530.7
2023-04-10T07:19:03.821Z,530.5
2023-04-10T07:20:05.738Z,530.7
2023-04-10T07:21:07.585Z,530.5
2023-04-10T07:22:09.541Z,530.7
2023-04-10T07:23:11.490Z,530.7
2023-04-10T07:24:13.337Z,530.7
2023-04-10T07:25:15.280Z,530.4
2023-04-10T07:26:17.078Z,530.3
2023-04-10T07:27:18.883Z,530.3
2023-04-10T07:28:20.744Z,530.4
2023-04-10T07:29:22.479Z,530.4
2023-04-10T07:30:24.428Z,530.6
2023-04-10T07:31:26.688Z,530.3
2023-04-10T07:32:29.168Z,530.9
2023-04-10T07:33:31.230Z,530.4
2023-04-10T07:34:33.005Z,530.3
2023-04-10T07:35:34.813Z,530.3
2023-04-10T07:36:36.616Z,530.2
2023-04-10T07:37:38.645Z,530.4
2023-04-10T07:38:40.469Z,530.5
2023-04-10T07:39:42.207Z,530.3
2023-04-10T07:40:44.064Z,530.1
2023-04-10T07:41:45.912Z,529.7
2023-04-10T07:42:47.764Z,529.9
2023-04-10T07:43:49.517Z,529.7
2023-04-10T07:44:51.265Z,529.7
2023-04-10T07:45:53.327Z,529.7
2023-04-10T07:46:54.983Z,530.2
2023-04-10T07:47:56.976Z,530.5
2023-04-10T07:48:58.979Z,530.2
2023-04-10T07:50:00.705Z,530
2023-04-10T07:51:02.576Z,530.3
2023-04-10T07:52:04.421Z,530.1
2023-04-10T07:53:06.286Z,530.2
2023-04-10T07:54:08.128Z,530.6
2023-04-10T07:55:09.964Z,530.3
2023-04-10T07:56:11.819Z,530.2
2023-04-10T07:57:13.767Z,530.4
2023-04-10T07:58:15.622Z,530.5
2023-04-10T07:59:17.468Z,530.4
2023-04-10T08:00:19.310Z,530.3
2023-04-10T08:01:21.070Z,530.4
2023-04-10T08:02:23.920Z,530.6
2023-04-10T08:03:26.568Z,530.3
2023-04-10T08:04:29.329Z,530.6
2023-04-10T08:05:31.833Z,530.5
2023-04-10T08:06:33.700Z,530.4
2023-04-10T08:07:35.449Z,530.3
2023-04-10T08:08:37.202Z,530.2
2023-04-10T08:09:39.075Z,530.4
2023-04-10T08:10:41.092Z,530
2023-04-10T08:11:42.844Z,530.1
2023-04-10T08:12:44.706Z,530.3
2023-04-10T08:13:46.449Z,530.1
2023-04-10T08:14:48.297Z,530.2
2023-04-10T08:15:50.140Z,530.2
2023-04-10T08:16:52.328Z,530.1
2023-04-10T08:17:54.578Z,530
2023-04-10T08:18:57.276Z,530.5
2023-04-10T08:19:59.199Z,530.2
2023-04-10T08:21:00.997Z,530.3
2023-04-10T08:22:02.818Z,530.5
2023-04-10T08:23:21.420Z,530.1
2023-04-10T08:24:23.292Z,530.1
2023-04-10T08:25:25.223Z,530.2
2023-04-10T08:26:27.003Z,530.2
2023-04-10T08:27:28.725Z,530.3
2023-04-10T08:28:30.496Z,530.6
2023-04-10T08:29:32.211Z,530.5
2023-04-10T08:30:34.174Z,530.1
2023-04-10T08:31:36.109Z,530.3
2023-04-10T08:32:38.195Z,530.2
2023-04-10T08:33:39.902Z,530.1
2023-04-10T08:34:41.673Z,530.2
2023-04-10T08:35:43.742Z,530.2
2023-04-10T08:36:45.504Z,529.8
2023-04-10T08:38:14.839Z,530.2
2023-04-10T08:39:16.814Z,530.3
2023-04-10T08:40:18.696Z,530.6
2023-04-10T08:41:20.629Z,530.2
2023-04-10T08:42:23.316Z,530.3
2023-04-10T08:43:25.077Z,530.4
2023-04-10T08:44:26.881Z,530.2
2023-04-10T08:45:28.560Z,530.1
2023-04-10T08:46:30.654Z,530.7
2023-04-10T08:47:32.759Z,530
2023-04-10T08:48:34.529Z,530.5
2023-04-10T08:49:36.346Z,530.5
2023-04-10T08:50:38.189Z,530.6
2023-04-10T08:51:40.041Z,530.7
2023-04-10T08:52:41.921Z,530.5
2023-04-10T08:53:43.739Z,530.4
2023-04-10T08:54:45.508Z,530.6
2023-04-10T08:55:47.582Z,530.9
2023-04-10T08:56:49.276Z,530.6
2023-04-10T08:58:02.619Z,530.3
2023-04-10T08:59:04.568Z,530.5
2023-04-10T09:09:03.276Z,530.8
2023-04-10T09:10:05.196Z,530.9
2023-04-10T09:11:07.120Z,531.2
2023-04-10T09:12:09.054Z,531
2023-04-10T09:13:10.903Z,531.2
2023-04-10T09:14:12.625Z,531.3
2023-04-10T09:15:14.299Z,531.9
2023-04-10T09:16:16.381Z,531.8
2023-04-10T09:17:18.217Z,531.9
2023-04-10T09:18:19.948Z,532
2023-04-10T09:19:21.806Z,532.2
2023-04-10T09:20:23.579Z,532.2
2023-04-10T09:21:25.395Z,532.2
2023-04-10T09:22:27.258Z,532.2
2023-04-10T09:23:29.096Z,532.4
2023-04-10T09:24:31.145Z,532.4
2023-04-10T09:25:32.999Z,532.5
2023-04-10T09:26:34.975Z,532.5
2023-04-10T09:27:36.910Z,532.7
2023-04-10T09:28:38.693Z,532.5
2023-04-10T09:29:40.524Z,532.5
2023-04-10T09:30:42.291Z,532.6
2023-04-10T09:31:44.535Z,532.2
2023-04-10T09:32:46.529Z,533
2023-04-10T09:33:48.457Z,532.9
2023-04-10T09:34:50.260Z,533.1
2023-04-10T09:35:51.973Z,533.3
2023-04-10T09:36:53.967Z,532.9
2023-04-10T09:37:55.830Z,533
2023-04-10T09:38:57.663Z,533.2
2023-04-10T09:39:59.525Z,533.3
2023-04-10T09:41:01.295Z,533.4
2023-04-10T09:42:03.243Z,533.8
2023-04-10T09:43:05.045Z,533.5
2023-04-10T09:44:06.934Z,534
2023-04-10T09:45:08.734Z,533.9
2023-04-10T09:46:10.609Z,533.7
2023-04-10T09:47:12.472Z,533.9
2023-04-10T09:48:14.325Z,533.8
2023-04-10T09:49:16.169Z,533.4
2023-04-10T09:50:18.113Z,533.5
2023-04-10T09:51:19.981Z,533.6
2023-04-10T09:52:21.926Z,533.6
2023-04-10T09:53:23.771Z,534
2023-04-10T09:54:25.564Z,533.7
2023-04-10T09:55:27.303Z,534.1
2023-04-10T09:56:29.112Z,534.3
2023-04-10T09:57:31.090Z,534.2
2023-04-10T09:58:33.021Z,534.3
2023-04-10T09:59:34.967Z,534.1
2023-04-10T10:00:36.827Z,534.3
2023-04-10T10:01:38.854Z,534.1
2023-04-10T10:02:41.738Z,534.7
2023-04-10T10:03:43.938Z,534.1
2023-04-10T10:04:46.293Z,534.4
2023-04-10T10:05:48.056Z,534.2
2023-04-10T10:06:49.697Z,534.4
2023-04-10T10:07:51.517Z,534.5
2023-04-10T10:08:54.468Z,534.8
2023-04-10T10:09:56.553Z,535.2
2023-04-10T10:10:58.427Z,535.1
2023-04-10T10:12:00.193Z,535.2
2023-04-10T10:13:02.122Z,535.4
2023-04-10T10:14:04.056Z,535.5
2023-04-10T10:15:06.011Z,535.6
2023-04-10T10:16:08.084Z,535.6
2023-04-10T10:17:09.898Z,535.6
2023-04-10T10:18:11.889Z,535.6
2023-04-10T10:19:13.704Z,535.6
2023-04-10T10:20:15.460Z,535.5
2023-04-10T10:21:17.313Z,535.8
2023-04-10T10:22:19.168Z,535.5
2023-04-10T10:23:21.003Z,535.9
2023-04-10T10:24:22.964Z,536
2023-04-10T10:25:24.751Z,536.4
2023-04-10T10:26:26.722Z,536.4
2023-04-10T10:27:28.468Z,536.7
2023-04-10T10:28:30.290Z,536.7
2023-04-10T10:29:32.122Z,536.7
2023-04-10T10:30:33.874Z,536.8
2023-04-10T10:31:35.903Z,536.9
2023-04-10T10:32:37.962Z,536.7
2023-04-10T10:33:39.690Z,537.2
2023-04-10T10:34:41.766Z,537.4
2023-04-10T10:35:43.553Z,537.8
2023-04-10T10:36:45.522Z,537.6
2023-04-10T10:37:47.325Z,537.8
2023-04-10T10:38:49.166Z,537.9
2023-04-10T10:39:50.928Z,538
2023-04-10T10:40:52.779Z,538.3
2023-04-10T10:41:54.722Z,538.3
2023-04-10T10:42:56.554Z,538.3
2023-04-10T10:43:58.497Z,538.8
2023-04-10T10:45:00.478Z,539
2023-04-10T10:46:02.771Z,539.2
2023-04-10T10:47:04.691Z,538.7
2023-04-10T10:48:06.880Z,538.8
2023-04-10T10:49:08.699Z,539.1
2023-04-10T10:50:10.452Z,539.1
2023-04-10T10:51:12.299Z,539.5
2023-04-10T10:52:14.358Z,539.8
2023-04-10T10:53:16.195Z,539.5
2023-04-10T10:54:18.044Z,539.7
2023-04-10T10:55:19.791Z,539.9
2023-04-10T10:56:21.672Z,539.8
2023-04-10T10:57:23.391Z,540.5
2023-04-10T10:58:25.240Z,540.2
2023-04-10T10:59:27.231Z,539.8
2023-04-10T11:00:29.146Z,539.9
2023-04-10T11:01:31.123Z,540.3
2023-04-10T11:02:33.597Z,540.4
2023-04-10T11:03:36.198Z,541
2023-04-10T11:04:37.979Z,541.6
2023-04-10T11:05:39.752Z,541.8
2023-04-10T11:06:45.122Z,542.6
2023-04-10T11:07:47.064Z,542.4
2023-04-10T11:08:49.109Z,542.6
2023-04-10T11:09:51.050Z,542.7
2023-04-10T11:10:52.742Z,542.9
2023-04-10T11:11:54.530Z,542.6
2023-04-10T11:12:56.371Z,542.5
2023-04-10T11:13:58.441Z,542.8
2023-04-10T11:15:00.510Z,542.6
2023-04-10T11:16:02.543Z,542.7
2023-04-10T11:17:04.854Z,542.9
2023-04-10T11:18:06.669Z,542.9
2023-04-10T11:19:22.500Z,542.4
2023-04-10T11:20:24.776Z,542.5
2023-04-10T11:21:26.436Z,542.9
2023-04-10T11:22:28.286Z,543.4
2023-04-10T11:23:30.006Z,542.9
2023-04-10T11:24:31.975Z,542.7
2023-04-10T11:25:33.668Z,542.8
2023-04-10T11:26:35.684Z,542.8
2023-04-10T11:27:37.523Z,543.2
2023-04-10T11:28:39.289Z,543
2023-04-10T11:29:41.248Z,543
2023-04-10T11:30:43.314Z,543.5
2023-04-10T11:31:45.499Z,543.5
2023-04-10T11:32:47.407Z,543.8
2023-04-10T11:33:49.240Z,543.7
2023-04-10T11:34:51.084Z,543.2
2023-04-10T11:35:52.919Z,543.6
2023-04-10T11:36:54.884Z,543.7
2023-04-10T11:37:56.634Z,543.8
2023-04-10T11:38:58.602Z,544
2023-04-10T11:40:00.446Z,543.8
2023-04-10T11:41:02.501Z,543.6
2023-04-10T11:42:04.368Z,544
2023-04-10T11:43:06.198Z,543.8
2023-04-10T11:44:07.957Z,543.7
2023-04-10T11:45:09.789Z,543.2
2023-04-10T11:46:12.009Z,543.6
2023-04-10T11:47:13.897Z,544.1
2023-04-10T11:48:15.695Z,543.7
2023-04-10T11:49:17.503Z,543.4
2023-04-10T11:50:19.447Z,543.9
2023-04-10T11:51:21.391Z,543.4
2023-04-10T11:52:23.191Z,543.5
2023-04-10T11:53:24.875Z,543.5
2023-04-10T11:54:26.884Z,543.6
2023-04-10T11:55:28.726Z,543.4
2023-04-10T11:56:30.547Z,543.6
2023-04-10T11:57:32.303Z,543.7
2023-04-10T11:58:34.150Z,543.5
2023-04-10T11:59:36.040Z,543.4
2023-04-10T12:00:37.859Z,543.2
2023-04-10T12:01:44.130Z,543.2
2023-04-10T12:02:46.733Z,543.1
2023-04-10T12:03:49.354Z,543.4
2023-04-10T12:04:51.678Z,543.3
2023-04-10T12:05:53.556Z,543.3
2023-04-10T12:06:55.406Z,543.9
2023-04-10T12:07:57.254Z,543.9
2023-04-10T12:08:59.225Z,543.9
2023-04-10T12:10:01.157Z,543.8
2023-04-10T12:11:03.097Z,544.3
2023-04-10T12:12:05.115Z,544.2
2023-04-10T12:13:08.132Z,544.2
2023-04-10T12:14:10.010Z,544
2023-04-10T12:15:11.957Z,543.7
2023-04-10T12:16:14.468Z,544.3
2023-04-10T12:17:16.399Z,544.3
2023-04-10T12:18:18.309Z,544.1
2023-04-10T12:19:20.164Z,543.6
2023-04-10T12:20:22.111Z,543.2
2023-04-10T12:21:23.955Z,543.1
2023-04-10T12:22:25.820Z,542.6
2023-04-10T12:23:27.601Z,543.2
2023-04-10T12:24:29.505Z,543
2023-04-10T12:25:31.354Z,543.1
2023-04-10T12:26:33.207Z,542.9
2023-04-10T12:27:35.160Z,543
2023-04-10T12:28:36.915Z,543.1
2023-04-10T12:29:38.870Z,542.8
2023-04-10T12:30:40.617Z,542.5
2023-04-10T12:31:43.212Z,542.8
2023-04-10T12:32:45.282Z,542.6
2023-04-10T12:33:47.219Z,542.9
2023-04-10T12:34:49.046Z,543.2
2023-04-10T12:35:51.016Z,543.1
2023-04-10T12:36:52.839Z,543.1
2023-04-10T12:37:54.909Z,542.5
2023-04-10T12:38:57.463Z,542.7
2023-04-10T12:39:59.322Z,542.7
2023-04-10T12:41:01.080Z,542.8
2023-04-10T12:42:03.114Z,543.1
2023-04-10T12:43:04.970Z,543.2
2023-04-10T12:44:06.817Z,543.3
2023-04-10T12:45:08.570Z,543.3
2023-04-10T12:46:10.720Z,543.5
2023-04-10T12:47:12.683Z,543.6
2023-04-10T12:48:14.550Z,543.3
2023-04-10T12:49:17.089Z,544
2023-04-10T12:50:18.851Z,543.9
2023-04-10T12:51:20.687Z,544.2
2023-04-10T12:52:22.441Z,544.3
2023-04-10T12:53:24.229Z,544.5
2023-04-10T12:54:26.058Z,544.4
2023-04-10T12:55:27.903Z,544.4
2023-04-10T12:56:29.844Z,544.3
2023-04-10T12:57:31.683Z,544.8
2023-04-10T12:58:33.552Z,544.7
2023-04-10T12:59:35.411Z,544.8
2023-04-10T13:00:37.254Z,544.7
2023-04-10T13:01:39.456Z,545
2023-04-10T13:02:42.670Z,545.2
2023-04-10T13:03:45.348Z,545
2023-04-10T13:04:47.720Z,545.2
2023-04-10T13:05:49.482Z,545.2
2023-04-10T13:06:51.304Z,545.3
2023-04-10T13:07:53.549Z,545.1
2023-04-10T13:08:56.674Z,545.3
2023-04-10T13:09:58.574Z,545.4
2023-04-10T13:11:00.551Z,545.5
2023-04-10T13:12:02.392Z,545.4
2023-04-10T13:13:04.462Z,545.6
2023-04-10T13:14:06.311Z,545.9
2023-04-10T13:15:08.681Z,546
2023-04-10T13:16:10.887Z,545.8
2023-04-10T13:17:12.789Z,546
2023-04-10T13:18:14.864Z,545.9
2023-04-10T13:19:16.745Z,546.3
2023-04-10T13:20:18.625Z,546.1
2023-04-10T13:21:20.589Z,546.9
2023-04-10T13:22:22.434Z,546.7
2023-04-10T13:23:24.295Z,547
2023-04-10T13:24:26.138Z,547.4
2023-04-10T13:25:27.977Z,547.3
2023-04-10T13:26:29.828Z,547.1
2023-04-10T13:27:31.508Z,547.4
2023-04-10T13:28:33.339Z,547.5
2023-04-10T13:29:35.051Z,547.3
2023-04-10T13:30:36.834Z,547.3
2023-04-10T13:31:38.916Z,547.7
2023-04-10T13:32:40.846Z,547.3